sensor_id;sensor_type;location;lat;lon;timestamp;temperature;humidity
11736;DHT22;5924;51.398;7.088;2022-08-21T00:01:54;15.10;99.90
11736;DHT22;5924;51.398;7.088;2022-08-21T00:04:20;15.00;99.90
11736;DHT22;5924;51.398;7.088;2022-08-21T00:06:46;15.00;99.90
11736;DHT22;5924;51.398;7.088;2022-08-21T00:09:11;15.00;99.90
11736;DHT22;5924;51.398;7.088;2022-08-21T00:11:38;16.70;99.90
11736;DHT22;5924;51.398;7.088;2022-08-21T00:14:07;14.80;99.90
11736;DHT22;5924;51.398;7.088;2022-08-21T00:16:33;14.70;99.90
11736;DHT22;5924;51.398;7.088;2022-08-21T00:18:59;14.70;99.90
11736;DHT22;5924;51.398;7.088;2022-08-21T00:21:25;14.60;99.90
11736;DHT22;5924;51.398;7.088;2022-08-21T00:23:51;14.50;99.90
11736;DHT22;5924;51.398;7.088;2022-08-21T00:26:16;14.40;99.90
11736;DHT22;5924;51.398;7.088;2022-08-21T00:28:42;14.40;99.90
11736;DHT22;5924;51.398;7.088;2022-08-21T00:31:08;14.40;99.90
11736;DHT22;5924;51.398;7.088;2022-08-21T00:33:34;14.30;99.90
11736;DHT22;5924;51.398;7.088;2022-08-21T00:36:00;14.30;99.90
11736;DHT22;5924;51.398;7.088;2022-08-21T00:38:26;14.30;99.90
11736;DHT22;5924;51.398;7.088;2022-08-21T00:41:00;14.20;99.90
11736;DHT22;5924;51.398;7.088;2022-08-21T00:43:30;14.20;99.90
11736;DHT22;5924;51.398;7.088;2022-08-21T00:45:57;14.20;99.90
11736;DHT22;5924;51.398;7.088;2022-08-21T00:48:23;14.20;99.90
11736;DHT22;5924;51.398;7.088;2022-08-21T00:50:54;14.20;99.90
11736;DHT22;5924;51.398;7.088;2022-08-21T00:53:22;14.20;99.90
11736;DHT22;5924;51.398;7.088;2022-08-21T00:55:49;14.20;99.90
11736;DHT22;5924;51.398;7.088;2022-08-21T00:58:16;14.20;99.90
11736;DHT22;5924;51.398;7.088;2022-08-21T01:00:44;14.30;99.90
11736;DHT22;5924;51.398;7.088;2022-08-21T01:03:14;14.30;99.90
11736;DHT22;5924;51.398;7.088;2022-08-21T01:05:41;14.40;99.90
11736;DHT22;5924;51.398;7.088;2022-08-21T01:08:08;16.00;99.90
11736;DHT22;5924;51.398;7.088;2022-08-21T01:10:34;14.40;99.90
11736;DHT22;5924;51.398;7.088;2022-08-21T01:13:01;15.20;99.90
11736;DHT22;5924;51.398;7.088;2022-08-21T01:15:33;14.50;99.90
11736;DHT22;5924;51.398;7.088;2022-08-21T01:18:00;14.50;99.90
11736;DHT22;5924;51.398;7.088;2022-08-21T01:20:26;14.50;99.90
11736;DHT22;5924;51.398;7.088;2022-08-21T01:22:52;14.40;99.90
11736;DHT22;5924;51.398;7.088;2022-08-21T01:25:18;14.40;99.90
11736;DHT22;5924;51.398;7.088;2022-08-21T01:27:47;14.30;99.90
11736;DHT22;5924;51.398;7.088;2022-08-21T01:30:20;14.20;99.90
11736;DHT22;5924;51.398;7.088;2022-08-21T01:32:48;14.10;99.90
11736;DHT22;5924;51.398;7.088;2022-08-21T01:35:15;14.10;99.90
11736;DHT22;5924;51.398;7.088;2022-08-21T01:37:41;14.00;99.90
11736;DHT22;5924;51.398;7.088;2022-08-21T01:40:08;14.00;99.90
11736;DHT22;5924;51.398;7.088;2022-08-21T01:42:34;13.90;99.90
11736;DHT22;5924;51.398;7.088;2022-08-21T01:45:00;13.90;99.90
11736;DHT22;5924;51.398;7.088;2022-08-21T01:47:26;13.80;99.90
11736;DHT22;5924;51.398;7.088;2022-08-21T01:49:52;13.80;99.90
11736;DHT22;5924;51.398;7.088;2022-08-21T01:52:18;13.70;99.90
11736;DHT22;5924;51.398;7.088;2022-08-21T01:54:45;13.70;99.90
11736;DHT22;5924;51.398;7.088;2022-08-21T01:57:11;13.60;99.90
11736;DHT22;5924;51.398;7.088;2022-08-21T01:59:37;13.60;99.90
11736;DHT22;5924;51.398;7.088;2022-08-21T02:02:04;13.60;99.90
11736;DHT22;5924;51.398;7.088;2022-08-21T02:04:30;13.50;99.90
11736;DHT22;5924;51.398;7.088;2022-08-21T02:06:56;13.50;99.90
11736;DHT22;5924;51.398;7.088;2022-08-21T02:09:21;13.50;99.90
11736;DHT22;5924;51.398;7.088;2022-08-21T02:11:47;13.40;99.90
11736;DHT22;5924;51.398;7.088;2022-08-21T02:14:15;13.40;99.90
11736;DHT22;5924;51.398;7.088;2022-08-21T02:16:43;13.40;99.90
11736;DHT22;5924;51.398;7.088;2022-08-21T02:19:10;13.40;99.90
11736;DHT22;5924;51.398;7.088;2022-08-21T02:21:36;13.30;99.90
11736;DHT22;5924;51.398;7.088;2022-08-21T02:24:03;13.30;99.90
11736;DHT22;5924;51.398;7.088;2022-08-21T02:26:28;13.30;99.90
11736;DHT22;5924;51.398;7.088;2022-08-21T02:28:54;13.20;99.90
11736;DHT22;5924;51.398;7.088;2022-08-21T02:31:20;13.20;99.90
11736;DHT22;5924;51.398;7.088;2022-08-21T02:33:45;13.20;99.90
11736;DHT22;5924;51.398;7.088;2022-08-21T02:36:12;13.20;99.90
11736;DHT22;5924;51.398;7.088;2022-08-21T02:38:39;13.20;99.90
11736;DHT22;5924;51.398;7.088;2022-08-21T02:41:13;13.30;99.90
11736;DHT22;5924;51.398;7.088;2022-08-21T02:43:39;13.30;99.90
11736;DHT22;5924;51.398;7.088;2022-08-21T02:46:06;13.30;99.90
11736;DHT22;5924;51.398;7.088;2022-08-21T02:48:33;13.20;99.90
11736;DHT22;5924;51.398;7.088;2022-08-21T02:51:02;13.20;99.90
11736;DHT22;5924;51.398;7.088;2022-08-21T02:53:29;13.20;99.90
11736;DHT22;5924;51.398;7.088;2022-08-21T02:55:57;13.10;99.90
11736;DHT22;5924;51.398;7.088;2022-08-21T02:58:26;13.10;99.90
11736;DHT22;5924;51.398;7.088;2022-08-21T03:00:53;13.10;99.90
11736;DHT22;5924;51.398;7.088;2022-08-21T03:03:18;13.10;99.90
11736;DHT22;5924;51.398;7.088;2022-08-21T03:05:46;13.20;99.90
11736;DHT22;5924;51.398;7.088;2022-08-21T03:08:14;13.10;99.90
11736;DHT22;5924;51.398;7.088;2022-08-21T03:10:42;13.10;99.90
11736;DHT22;5924;51.398;7.088;2022-08-21T03:13:09;13.10;99.90
11736;DHT22;5924;51.398;7.088;2022-08-21T03:15:35;13.10;99.90
11736;DHT22;5924;51.398;7.088;2022-08-21T03:18:02;13.20;99.90
11736;DHT22;5924;51.398;7.088;2022-08-21T03:20:29;13.20;99.90
11736;DHT22;5924;51.398;7.088;2022-08-21T03:22:55;13.20;99.90
11736;DHT22;5924;51.398;7.088;2022-08-21T03:25:23;13.20;99.90
11736;DHT22;5924;51.398;7.088;2022-08-21T03:27:49;13.10;99.90
11736;DHT22;5924;51.398;7.088;2022-08-21T03:30:16;13.10;99.90
11736;DHT22;5924;51.398;7.088;2022-08-21T03:32:42;13.20;99.90
11736;DHT22;5924;51.398;7.088;2022-08-21T03:35:08;13.20;99.90
11736;DHT22;5924;51.398;7.088;2022-08-21T03:37:35;13.20;99.90
11736;DHT22;5924;51.398;7.088;2022-08-21T03:40:05;13.20;99.90
11736;DHT22;5924;51.398;7.088;2022-08-21T03:42:31;13.60;99.90
11736;DHT22;5924;51.398;7.088;2022-08-21T03:44:57;13.20;99.90
11736;DHT22;5924;51.398;7.088;2022-08-21T03:47:23;13.10;99.90
11736;DHT22;5924;51.398;7.088;2022-08-21T03:49:48;13.10;99.90
11736;DHT22;5924;51.398;7.088;2022-08-21T03:52:14;13.00;99.90
11736;DHT22;5924;51.398;7.088;2022-08-21T03:54:41;13.00;99.90
11736;DHT22;5924;51.398;7.088;2022-08-21T03:57:08;13.10;99.90
11736;DHT22;5924;51.398;7.088;2022-08-21T03:59:35;13.00;99.90
11736;DHT22;5924;51.398;7.088;2022-08-21T04:02:02;13.10;99.90
11736;DHT22;5924;51.398;7.088;2022-08-21T04:04:29;13.10;99.90
11736;DHT22;5924;51.398;7.088;2022-08-21T04:06:56;13.10;99.90
11736;DHT22;5924;51.398;7.088;2022-08-21T04:09:22;13.00;99.90
11736;DHT22;5924;51.398;7.088;2022-08-21T04:11:48;12.90;99.90
11736;DHT22;5924;51.398;7.088;2022-08-21T04:14:15;14.30;99.90
11736;DHT22;5924;51.398;7.088;2022-08-21T04:16:42;12.80;99.90
11736;DHT22;5924;51.398;7.088;2022-08-21T04:19:09;12.80;99.90
11736;DHT22;5924;51.398;7.088;2022-08-21T04:21:39;12.70;99.90
11736;DHT22;5924;51.398;7.088;2022-08-21T04:24:06;12.70;99.90
11736;DHT22;5924;51.398;7.088;2022-08-21T04:26:33;12.70;99.90
11736;DHT22;5924;51.398;7.088;2022-08-21T04:29:00;12.70;99.90
11736;DHT22;5924;51.398;7.088;2022-08-21T04:31:26;12.70;99.90
11736;DHT22;5924;51.398;7.088;2022-08-21T04:33:53;12.70;99.90
11736;DHT22;5924;51.398;7.088;2022-08-21T04:36:19;12.60;99.90
11736;DHT22;5924;51.398;7.088;2022-08-21T04:38:44;12.60;99.90
11736;DHT22;5924;51.398;7.088;2022-08-21T04:41:10;12.60;99.90
11736;DHT22;5924;51.398;7.088;2022-08-21T04:43:37;12.60;99.90
11736;DHT22;5924;51.398;7.088;2022-08-21T04:46:03;12.60;99.90
11736;DHT22;5924;51.398;7.088;2022-08-21T04:48:29;12.60;99.90
11736;DHT22;5924;51.398;7.088;2022-08-21T04:51:15;12.60;99.90
11736;DHT22;5924;51.398;7.088;2022-08-21T04:53:52;12.70;99.90
11736;DHT22;5924;51.398;7.088;2022-08-21T04:56:23;12.70;99.90
11736;DHT22;5924;51.398;7.088;2022-08-21T04:58:50;12.70;99.90
11736;DHT22;5924;51.398;7.088;2022-08-21T05:01:21;12.70;99.90
11736;DHT22;5924;51.398;7.088;2022-08-21T05:03:49;12.70;99.90
11736;DHT22;5924;51.398;7.088;2022-08-21T05:06:17;12.80;99.90
11736;DHT22;5924;51.398;7.088;2022-08-21T05:08:45;14.50;99.90
11736;DHT22;5924;51.398;7.088;2022-08-21T05:11:12;12.80;99.90
11736;DHT22;5924;51.398;7.088;2022-08-21T05:13:38;12.70;99.90
11736;DHT22;5924;51.398;7.088;2022-08-21T05:16:07;12.70;99.90
11736;DHT22;5924;51.398;7.088;2022-08-21T05:18:32;12.70;99.90
11736;DHT22;5924;51.398;7.088;2022-08-21T05:20:58;12.70;99.90
11736;DHT22;5924;51.398;7.088;2022-08-21T05:23:24;12.80;99.90
11736;DHT22;5924;51.398;7.088;2022-08-21T05:25:51;12.80;99.90
11736;DHT22;5924;51.398;7.088;2022-08-21T05:28:17;12.90;99.90
11736;DHT22;5924;51.398;7.088;2022-08-21T05:30:43;13.30;99.90
11736;DHT22;5924;51.398;7.088;2022-08-21T05:33:09;13.00;99.90
11736;DHT22;5924;51.398;7.088;2022-08-21T05:35:36;13.10;99.90
11736;DHT22;5924;51.398;7.088;2022-08-21T05:38:03;13.20;99.90
11736;DHT22;5924;51.398;7.088;2022-08-21T05:40:29;13.20;99.90
11736;DHT22;5924;51.398;7.088;2022-08-21T05:42:55;13.30;99.90
11736;DHT22;5924;51.398;7.088;2022-08-21T05:45:27;13.40;99.90
11736;DHT22;5924;51.398;7.088;2022-08-21T05:47:53;13.40;99.90
11736;DHT22;5924;51.398;7.088;2022-08-21T05:50:20;13.50;99.90
11736;DHT22;5924;51.398;7.088;2022-08-21T05:52:45;13.50;99.90
11736;DHT22;5924;51.398;7.088;2022-08-21T05:55:11;13.60;99.90
11736;DHT22;5924;51.398;7.088;2022-08-21T05:57:37;13.70;99.90
11736;DHT22;5924;51.398;7.088;2022-08-21T06:00:07;13.80;99.90
11736;DHT22;5924;51.398;7.088;2022-08-21T06:02:35;13.90;99.90
11736;DHT22;5924;51.398;7.088;2022-08-21T06:05:01;13.90;99.90
11736;DHT22;5924;51.398;7.088;2022-08-21T06:07:26;14.00;99.90
11736;DHT22;5924;51.398;7.088;2022-08-21T06:09:52;14.10;99.90
11736;DHT22;5924;51.398;7.088;2022-08-21T06:12:18;14.20;99.90
11736;DHT22;5924;51.398;7.088;2022-08-21T06:14:43;14.20;99.90
11736;DHT22;5924;51.398;7.088;2022-08-21T06:17:11;14.30;99.90
11736;DHT22;5924;51.398;7.088;2022-08-21T06:19:38;14.40;99.90
11736;DHT22;5924;51.398;7.088;2022-08-21T06:22:04;14.60;99.90
11736;DHT22;5924;51.398;7.088;2022-08-21T06:24:30;14.70;99.90
11736;DHT22;5924;51.398;7.088;2022-08-21T06:26:56;14.80;99.90
11736;DHT22;5924;51.398;7.088;2022-08-21T06:29:23;14.80;99.90
11736;DHT22;5924;51.398;7.088;2022-08-21T06:31:49;14.90;99.90
11736;DHT22;5924;51.398;7.088;2022-08-21T06:34:16;15.20;99.90
11736;DHT22;5924;51.398;7.088;2022-08-21T06:36:41;15.10;99.90
11736;DHT22;5924;51.398;7.088;2022-08-21T06:39:07;15.10;99.90
11736;DHT22;5924;51.398;7.088;2022-08-21T06:41:33;15.20;99.90
11736;DHT22;5924;51.398;7.088;2022-08-21T06:43:59;15.30;99.90
11736;DHT22;5924;51.398;7.088;2022-08-21T06:46:28;15.40;99.90
11736;DHT22;5924;51.398;7.088;2022-08-21T06:48:55;15.50;99.90
11736;DHT22;5924;51.398;7.088;2022-08-21T06:51:21;15.60;99.90
11736;DHT22;5924;51.398;7.088;2022-08-21T06:53:46;15.70;99.90
11736;DHT22;5924;51.398;7.088;2022-08-21T06:56:12;15.80;99.90
11736;DHT22;5924;51.398;7.088;2022-08-21T06:58:38;15.90;99.90
11736;DHT22;5924;51.398;7.088;2022-08-21T07:01:04;16.00;99.90
11736;DHT22;5924;51.398;7.088;2022-08-21T07:03:33;16.10;99.90
11736;DHT22;5924;51.398;7.088;2022-08-21T07:06:00;16.10;99.90
11736;DHT22;5924;51.398;7.088;2022-08-21T07:08:26;16.20;95.40
11736;DHT22;5924;51.398;7.088;2022-08-21T07:10:58;16.30;88.00
11736;DHT22;5924;51.398;7.088;2022-08-21T07:13:24;16.40;83.30
11736;DHT22;5924;51.398;7.088;2022-08-21T07:15:50;16.40;70.90
11736;DHT22;5924;51.398;7.088;2022-08-21T07:18:16;16.50;66.40
11736;DHT22;5924;51.398;7.088;2022-08-21T07:20:42;16.60;60.60
11736;DHT22;5924;51.398;7.088;2022-08-21T07:23:22;16.70;53.70
11736;DHT22;5924;51.398;7.088;2022-08-21T07:25:49;16.80;43.40
11736;DHT22;5924;51.398;7.088;2022-08-21T07:28:14;16.90;43.60
11736;DHT22;5924;51.398;7.088;2022-08-21T07:30:40;17.00;34.30
11736;DHT22;5924;51.398;7.088;2022-08-21T07:33:06;17.10;23.40
11736;DHT22;5924;51.398;7.088;2022-08-21T07:35:32;17.20;16.60
11736;DHT22;5924;51.398;7.088;2022-08-21T07:37:58;17.30;1.00
11736;DHT22;5924;51.398;7.088;2022-08-21T07:40:24;17.40;1.00
11736;DHT22;5924;51.398;7.088;2022-08-21T07:42:50;17.50;1.00
11736;DHT22;5924;51.398;7.088;2022-08-21T07:45:19;17.60;1.00
11736;DHT22;5924;51.398;7.088;2022-08-21T07:47:45;17.70;1.00
11736;DHT22;5924;51.398;7.088;2022-08-21T07:50:14;17.80;1.00
11736;DHT22;5924;51.398;7.088;2022-08-21T07:52:40;18.00;1.00
11736;DHT22;5924;51.398;7.088;2022-08-21T07:55:08;18.10;1.00
11736;DHT22;5924;51.398;7.088;2022-08-21T07:57:35;18.20;1.00
11736;DHT22;5924;51.398;7.088;2022-08-21T08:00:02;18.20;1.00
11736;DHT22;5924;51.398;7.088;2022-08-21T08:02:29;18.30;1.00
11736;DHT22;5924;51.398;7.088;2022-08-21T08:05:03;18.40;1.00
11736;DHT22;5924;51.398;7.088;2022-08-21T08:07:29;18.40;1.00
11736;DHT22;5924;51.398;7.088;2022-08-21T08:09:55;18.50;1.00
11736;DHT22;5924;51.398;7.088;2022-08-21T08:12:21;18.60;1.00
11736;DHT22;5924;51.398;7.088;2022-08-21T08:14:47;18.70;1.00
11736;DHT22;5924;51.398;7.088;2022-08-21T08:17:13;18.80;1.00
11736;DHT22;5924;51.398;7.088;2022-08-21T08:19:39;18.90;1.00
11736;DHT22;5924;51.398;7.088;2022-08-21T08:22:16;19.00;1.00
11736;DHT22;5924;51.398;7.088;2022-08-21T08:24:42;19.10;1.00
11736;DHT22;5924;51.398;7.088;2022-08-21T08:27:08;19.20;1.00
11736;DHT22;5924;51.398;7.088;2022-08-21T08:29:34;19.40;1.00
11736;DHT22;5924;51.398;7.088;2022-08-21T08:31:59;19.50;1.00
11736;DHT22;5924;51.398;7.088;2022-08-21T08:34:25;19.60;1.00
11736;DHT22;5924;51.398;7.088;2022-08-21T08:36:51;19.70;1.00
11736;DHT22;5924;51.398;7.088;2022-08-21T08:39:16;19.80;1.00
11736;DHT22;5924;51.398;7.088;2022-08-21T08:41:43;19.60;99.90
11736;DHT22;5924;51.398;7.088;2022-08-21T08:44:10;20.00;99.90
11736;DHT22;5924;51.398;7.088;2022-08-21T08:46:45;20.20;16.50
11736;DHT22;5924;51.398;7.088;2022-08-21T08:49:18;20.30;38.10
11736;DHT22;5924;51.398;7.088;2022-08-21T08:52:29;20.40;1.00
11736;DHT22;5924;51.398;7.088;2022-08-21T08:57:27;20.70;1.00
11736;DHT22;5924;51.398;7.088;2022-08-21T08:59:57;20.80;99.90
11736;DHT22;5924;51.398;7.088;2022-08-21T09:02:24;21.00;1.00
11736;DHT22;5924;51.398;7.088;2022-08-21T09:04:50;21.10;99.90
11736;DHT22;5924;51.398;7.088;2022-08-21T09:07:47;21.30;1.00
11736;DHT22;5924;51.398;7.088;2022-08-21T09:10:45;21.50;99.90
11736;DHT22;5924;51.398;7.088;2022-08-21T09:13:13;21.70;1.00
11736;DHT22;5924;51.398;7.088;2022-08-21T09:16:46;21.80;99.90
11736;DHT22;5924;51.398;7.088;2022-08-21T09:19:05;20.50;1.00
11736;DHT22;5924;51.398;7.088;2022-08-21T09:21:50;22.20;1.00
11736;DHT22;5924;51.398;7.088;2022-08-21T09:27:16;22.20;1.00
11736;DHT22;5924;51.398;7.088;2022-08-21T09:29:51;22.10;1.00
11736;DHT22;5924;51.398;7.088;2022-08-21T09:32:20;21.90;1.00
11736;DHT22;5924;51.398;7.088;2022-08-21T09:37:25;21.60;1.00
11736;DHT22;5924;51.398;7.088;2022-08-21T09:39:51;21.40;1.00
11736;DHT22;5924;51.398;7.088;2022-08-21T09:42:28;21.40;1.00
11736;DHT22;5924;51.398;7.088;2022-08-21T09:47:32;21.50;43.10
11736;DHT22;5924;51.398;7.088;2022-08-21T09:50:12;21.70;99.90
11736;DHT22;5924;51.398;7.088;2022-08-21T09:52:44;22.00;99.90
11736;DHT22;5924;51.398;7.088;2022-08-21T09:55:28;22.20;1.00
11736;DHT22;5924;51.398;7.088;2022-08-21T09:58:14;22.40;1.00
11736;DHT22;5924;51.398;7.088;2022-08-21T10:00:40;22.50;1.00
11736;DHT22;5924;51.398;7.088;2022-08-21T10:03:13;22.70;99.90
11736;DHT22;5924;51.398;7.088;2022-08-21T10:06:03;22.70;99.90
11736;DHT22;5924;51.398;7.088;2022-08-21T10:08:35;22.70;99.90
11736;DHT22;5924;51.398;7.088;2022-08-21T10:11:08;22.90;99.90
11736;DHT22;5924;51.398;7.088;2022-08-21T10:13:53;22.90;99.90
11736;DHT22;5924;51.398;7.088;2022-08-21T10:30:12;23.40;99.90
11736;DHT22;5924;51.398;7.088;2022-08-21T10:41:02;23.60;99.90
11736;DHT22;5924;51.398;7.088;2022-08-21T10:44:28;23.60;99.90
11736;DHT22;5924;51.398;7.088;2022-08-21T10:46:32;23.70;99.90
11736;DHT22;5924;51.398;7.088;2022-08-21T10:54:38;24.30;99.90
11736;DHT22;5924;51.398;7.088;2022-08-21T10:57:14;24.40;99.90
11736;DHT22;5924;51.398;7.088;2022-08-21T10:59:49;24.60;99.90
11736;DHT22;5924;51.398;7.088;2022-08-21T11:02:33;24.60;99.90
11736;DHT22;5924;51.398;7.088;2022-08-21T11:05:09;24.70;99.90
11736;DHT22;5924;51.398;7.088;2022-08-21T11:07:43;24.60;99.90
11736;DHT22;5924;51.398;7.088;2022-08-21T11:10:21;24.60;99.90
11736;DHT22;5924;51.398;7.088;2022-08-21T11:16:10;24.90;99.90
11736;DHT22;5924;51.398;7.088;2022-08-21T11:18:41;25.10;99.90
11736;DHT22;5924;51.398;7.088;2022-08-21T11:26:50;25.70;99.90
11736;DHT22;5924;51.398;7.088;2022-08-21T11:29:35;25.60;99.90
11736;DHT22;5924;51.398;7.088;2022-08-21T11:34:42;25.50;99.90
11736;DHT22;5924;51.398;7.088;2022-08-21T11:40:18;25.40;99.90
11736;DHT22;5924;51.398;7.088;2022-08-21T11:45:50;25.10;99.90
11736;DHT22;5924;51.398;7.088;2022-08-21T11:51:09;24.90;99.90
11736;DHT22;5924;51.398;7.088;2022-08-21T11:54:24;25.20;99.90
11736;DHT22;5924;51.398;7.088;2022-08-21T11:56:26;25.40;99.90
11736;DHT22;5924;51.398;7.088;2022-08-21T11:59:04;25.80;99.90
11736;DHT22;5924;51.398;7.088;2022-08-21T12:01:38;26.10;99.90
11736;DHT22;5924;51.398;7.088;2022-08-21T12:06:42;26.20;99.90
11736;DHT22;5924;51.398;7.088;2022-08-21T12:19:01;27.30;99.90
11736;DHT22;5924;51.398;7.088;2022-08-21T12:21:15;27.50;99.80
11736;DHT22;5924;51.398;7.088;2022-08-21T12:23:59;27.60;99.30
11736;DHT22;5924;51.398;7.088;2022-08-21T12:26:33;28.00;99.40
11736;DHT22;5924;51.398;7.088;2022-08-21T12:29:30;28.10;95.50
11736;DHT22;5924;51.398;7.088;2022-08-21T12:34:35;28.30;95.70
11736;DHT22;5924;51.398;7.088;2022-08-21T12:37:22;29.20;95.20
11736;DHT22;5924;51.398;7.088;2022-08-21T12:39:52;29.80;93.10
11736;DHT22;5924;51.398;7.088;2022-08-21T12:42:39;30.00;91.70
11736;DHT22;5924;51.398;7.088;2022-08-21T12:45:22;30.00;90.50
11736;DHT22;5924;51.398;7.088;2022-08-21T12:50:45;30.50;86.80
11736;DHT22;5924;51.398;7.088;2022-08-21T12:55:49;31.40;83.00
11736;DHT22;5924;51.398;7.088;2022-08-21T12:58:23;31.30;85.30
11736;DHT22;5924;51.398;7.088;2022-08-21T13:01:07;31.00;82.50
11736;DHT22;5924;51.398;7.088;2022-08-21T13:03:36;30.70;82.60
11736;DHT22;5924;51.398;7.088;2022-08-21T13:06:06;30.40;82.90
11736;DHT22;5924;51.398;7.088;2022-08-21T13:08:35;30.60;82.50
11736;DHT22;5924;51.398;7.088;2022-08-21T13:11:05;30.90;82.60
11736;DHT22;5924;51.398;7.088;2022-08-21T13:13:32;31.40;79.70
11736;DHT22;5924;51.398;7.088;2022-08-21T13:16:03;31.50;80.60
11736;DHT22;5924;51.398;7.088;2022-08-21T13:18:32;31.80;78.40
11736;DHT22;5924;51.398;7.088;2022-08-21T13:21:07;32.70;80.70
11736;DHT22;5924;51.398;7.088;2022-08-21T13:23:35;33.20;75.20
11736;DHT22;5924;51.398;7.088;2022-08-21T13:26:02;33.40;72.00
11736;DHT22;5924;51.398;7.088;2022-08-21T13:28:36;32.80;71.40
11736;DHT22;5924;51.398;7.088;2022-08-21T13:31:07;32.60;73.30
11736;DHT22;5924;51.398;7.088;2022-08-21T13:33:36;33.00;71.10
11736;DHT22;5924;51.398;7.088;2022-08-21T13:36:13;33.40;67.40
11736;DHT22;5924;51.398;7.088;2022-08-21T13:38:41;33.70;68.80
11736;DHT22;5924;51.398;7.088;2022-08-21T13:43:50;34.40;66.70
11736;DHT22;5924;51.398;7.088;2022-08-21T13:46:17;34.90;65.90
11736;DHT22;5924;51.398;7.088;2022-08-21T13:48:45;35.40;64.00
11736;DHT22;5924;51.398;7.088;2022-08-21T13:51:11;35.10;56.80
11736;DHT22;5924;51.398;7.088;2022-08-21T13:56:43;35.00;59.70
11736;DHT22;5924;51.398;7.088;2022-08-21T13:59:09;34.80;57.70
11736;DHT22;5924;51.398;7.088;2022-08-21T14:01:48;34.50;57.60
11736;DHT22;5924;51.398;7.088;2022-08-21T14:04:22;34.60;58.00
11736;DHT22;5924;51.398;7.088;2022-08-21T14:06:50;35.10;59.30
11736;DHT22;5924;51.398;7.088;2022-08-21T14:11:54;36.40;57.70
11736;DHT22;5924;51.398;7.088;2022-08-21T14:14:39;37.20;56.20
11736;DHT22;5924;51.398;7.088;2022-08-21T14:17:08;37.10;53.50
11736;DHT22;5924;51.398;7.088;2022-08-21T14:19:41;36.20;54.90
11736;DHT22;5924;51.398;7.088;2022-08-21T14:22:30;34.70;57.10
11736;DHT22;5924;51.398;7.088;2022-08-21T14:25:02;33.60;62.10
11736;DHT22;5924;51.398;7.088;2022-08-21T14:27:30;33.30;58.40
11736;DHT22;5924;51.398;7.088;2022-08-21T14:30:04;32.70;59.80
11736;DHT22;5924;51.398;7.088;2022-08-21T14:32:40;32.10;59.30
11736;DHT22;5924;51.398;7.088;2022-08-21T14:35:06;31.10;61.50
11736;DHT22;5924;51.398;7.088;2022-08-21T14:37:32;30.50;64.00
11736;DHT22;5924;51.398;7.088;2022-08-21T14:39:58;30.50;65.30
11736;DHT22;5924;51.398;7.088;2022-08-21T14:42:24;30.70;65.70
11736;DHT22;5924;51.398;7.088;2022-08-21T14:44:50;30.60;65.60
11736;DHT22;5924;51.398;7.088;2022-08-21T14:47:16;30.00;64.20
11736;DHT22;5924;51.398;7.088;2022-08-21T14:49:42;29.70;67.00
11736;DHT22;5924;51.398;7.088;2022-08-21T14:52:08;29.40;65.40
11736;DHT22;5924;51.398;7.088;2022-08-21T14:54:34;29.00;65.90
11736;DHT22;5924;51.398;7.088;2022-08-21T14:57:08;28.60;66.70
11736;DHT22;5924;51.398;7.088;2022-08-21T14:59:35;29.10;67.80
11736;DHT22;5924;51.398;7.088;2022-08-21T15:02:03;30.50;67.30
11736;DHT22;5924;51.398;7.088;2022-08-21T15:04:32;32.40;64.20
11736;DHT22;5924;51.398;7.088;2022-08-21T15:06:58;33.90;58.40
11736;DHT22;5924;51.398;7.088;2022-08-21T15:09:23;35.30;55.10
11736;DHT22;5924;51.398;7.088;2022-08-21T15:11:51;36.30;52.90
11736;DHT22;5924;51.398;7.088;2022-08-21T15:14:23;37.30;52.80
11736;DHT22;5924;51.398;7.088;2022-08-21T15:16:50;37.20;51.20
11736;DHT22;5924;51.398;7.088;2022-08-21T15:19:16;36.60;51.40
11736;DHT22;5924;51.398;7.088;2022-08-21T15:21:41;35.70;51.10
11736;DHT22;5924;51.398;7.088;2022-08-21T15:24:07;34.70;52.00
11736;DHT22;5924;51.398;7.088;2022-08-21T15:26:34;34.10;52.60
11736;DHT22;5924;51.398;7.088;2022-08-21T15:29:00;34.50;52.50
11736;DHT22;5924;51.398;7.088;2022-08-21T15:31:26;35.80;51.90
11736;DHT22;5924;51.398;7.088;2022-08-21T15:33:53;36.60;49.90
11736;DHT22;5924;51.398;7.088;2022-08-21T15:36:18;37.30;47.50
11736;DHT22;5924;51.398;7.088;2022-08-21T15:38:44;37.40;48.40
11736;DHT22;5924;51.398;7.088;2022-08-21T15:41:10;37.00;47.00
11736;DHT22;5924;51.398;7.088;2022-08-21T15:43:49;36.40;47.50
11736;DHT22;5924;51.398;7.088;2022-08-21T15:46:17;36.00;47.40
11736;DHT22;5924;51.398;7.088;2022-08-21T15:48:43;35.40;48.40
11736;DHT22;5924;51.398;7.088;2022-08-21T15:51:12;35.10;48.90
11736;DHT22;5924;51.398;7.088;2022-08-21T15:53:39;34.70;48.80
11736;DHT22;5924;51.398;7.088;2022-08-21T15:56:26;34.90;50.30
11736;DHT22;5924;51.398;7.088;2022-08-21T15:58:54;35.50;48.00
11736;DHT22;5924;51.398;7.088;2022-08-21T16:01:23;34.40;49.30
11736;DHT22;5924;51.398;7.088;2022-08-21T16:03:50;34.20;51.80
11736;DHT22;5924;51.398;7.088;2022-08-21T16:06:18;35.00;49.70
11736;DHT22;5924;51.398;7.088;2022-08-21T16:08:43;35.70;48.10
11736;DHT22;5924;51.398;7.088;2022-08-21T16:11:11;35.90;48.90
11736;DHT22;5924;51.398;7.088;2022-08-21T16:13:41;36.50;46.00
11736;DHT22;5924;51.398;7.088;2022-08-21T16:16:12;35.90;46.70
11736;DHT22;5924;51.398;7.088;2022-08-21T16:18:39;34.80;47.60
11736;DHT22;5924;51.398;7.088;2022-08-21T16:21:06;33.50;50.00
11736;DHT22;5924;51.398;7.088;2022-08-21T16:23:33;32.10;52.10
11736;DHT22;5924;51.398;7.088;2022-08-21T16:26:01;31.90;55.70
11736;DHT22;5924;51.398;7.088;2022-08-21T16:28:27;31.80;54.00
11736;DHT22;5924;51.398;7.088;2022-08-21T16:30:54;31.50;53.90
11736;DHT22;5924;51.398;7.088;2022-08-21T16:33:33;31.70;53.30
11736;DHT22;5924;51.398;7.088;2022-08-21T16:36:00;31.30;53.20
11736;DHT22;5924;51.398;7.088;2022-08-21T16:38:26;30.70;54.50
11736;DHT22;5924;51.398;7.088;2022-08-21T16:40:53;30.00;54.70
11736;DHT22;5924;51.398;7.088;2022-08-21T16:43:21;29.30;56.20
11736;DHT22;5924;51.398;7.088;2022-08-21T16:45:48;28.20;58.10
11736;DHT22;5924;51.398;7.088;2022-08-21T16:48:14;27.60;60.50
11736;DHT22;5924;51.398;7.088;2022-08-21T16:50:39;27.20;62.30
11736;DHT22;5924;51.398;7.088;2022-08-21T16:53:05;26.90;64.30
11736;DHT22;5924;51.398;7.088;2022-08-21T16:55:32;26.60;65.20
11736;DHT22;5924;51.398;7.088;2022-08-21T16:57:58;26.20;66.40
11736;DHT22;5924;51.398;7.088;2022-08-21T17:00:25;25.80;67.50
11736;DHT22;5924;51.398;7.088;2022-08-21T17:02:53;25.60;68.50
11736;DHT22;5924;51.398;7.088;2022-08-21T17:05:19;25.40;69.20
11736;DHT22;5924;51.398;7.088;2022-08-21T17:07:45;25.40;70.30
11736;DHT22;5924;51.398;7.088;2022-08-21T17:10:14;25.40;71.20
11736;DHT22;5924;51.398;7.088;2022-08-21T17:12:42;25.40;71.70
11736;DHT22;5924;51.398;7.088;2022-08-21T17:15:19;25.20;71.00
11736;DHT22;5924;51.398;7.088;2022-08-21T17:17:45;25.00;71.90
11736;DHT22;5924;51.398;7.088;2022-08-21T17:20:11;24.70;73.30
11736;DHT22;5924;51.398;7.088;2022-08-21T17:22:37;24.60;73.70
11736;DHT22;5924;51.398;7.088;2022-08-21T17:25:03;24.40;74.10
11736;DHT22;5924;51.398;7.088;2022-08-21T17:27:28;24.30;75.30